Asherville, Missouri
Current Conditions -  °F | °C
As of 4:53 AM on Monday 22 Dec 2014 (Local Time) from KPOF Reporting Station
Overcast Overcast  
Wind Chill: 43°   Ceiling: 1300
Heat Index: 43°   Visibility: 10mi
Dew Point: 38°   Wind: 3mph
Humidity: 82%   Direction: 150°SSE
Pressure: 29.83"   Gusts: NA
Location:  36.9506°N, 90.1582°W
Report Text: KPOF 221053Z AUTO 15003KT 10SM OVC013 06/03 A2983 RMK AO2 SLP103 T00610033
Loading
Personal Weather Stations






























Interactive Weather Map New forecast layout! Learn more

10-Day Weather Forecast

Advertisements
Track Severe Weather on mobile